Indio, California
Current Conditions -  °F | °C
As of 9:52 PM on Saturday 25 Oct 2014 (Local Time) from KTRM Reporting Station
Clear Clear  
Wind Chill: 82°   Ceiling: Unl
Heat Index: 82°   Visibility: 10mi
Dew Point: 49°   Wind: 16mph
Humidity: 31%   Direction: 340°NNW
Pressure: 29.86"   Gusts: NA
Location:  33.72°N, 116.21°W
Report Text: KTRM 260452Z AUTO 34014KT 10SM CLR 28/09 A2986 RMK AO2 SLP115 T02780094 TSNO
Loading
Personal Weather Stations






























Interactive Weather Map
Tropical Storm Tracking
New forecast layout! Learn more

10-Day Weather Forecast

Advertisements
Track Severe Weather on mobile